createdAt,value
2018-12-06T00:01:48.929Z,7.57
2018-12-06T00:04:16.581Z,6.73
2018-12-06T00:06:44.077Z,6.13
2018-12-06T00:09:11.576Z,6.53
2018-12-06T00:11:39.073Z,6.53
2018-12-06T00:14:06.566Z,7.07
2018-12-06T00:16:34.058Z,6.60
2018-12-06T00:19:08.741Z,6.30
2018-12-06T00:21:36.234Z,6.57
2018-12-06T00:24:03.729Z,6.37
2018-12-06T00:26:31.221Z,5.30
2018-12-06T00:28:58.715Z,6.80
2018-12-06T00:31:26.206Z,6.73
2018-12-06T00:33:53.705Z,6.87
2018-12-06T00:36:21.195Z,7.17
2018-12-06T00:38:48.691Z,7.33
2018-12-06T00:41:16.184Z,6.53
2018-12-06T00:43:43.682Z,7.53
2018-12-06T00:46:11.181Z,7.83
2018-12-06T00:48:38.673Z,6.50
2018-12-06T00:51:06.392Z,6.40
2018-12-06T00:53:33.890Z,8.00
2018-12-06T00:56:01.381Z,8.43
2018-12-06T00:58:28.873Z,7.37
2018-12-06T01:00:56.366Z,6.47
2018-12-06T01:03:23.858Z,6.53
2018-12-06T01:05:51.353Z,6.23
2018-12-06T01:08:18.849Z,6.00
2018-12-06T01:10:46.348Z,6.63
2018-12-06T01:13:13.842Z,6.43
2018-12-06T01:15:41.338Z,7.63
2018-12-06T01:18:08.832Z,7.90
2018-12-06T01:20:36.326Z,7.93
2018-12-06T01:23:03.825Z,6.10
2018-12-06T01:25:31.323Z,6.87
2018-12-06T01:27:58.831Z,7.50
2018-12-06T01:30:26.336Z,6.40
2018-12-06T01:32:53.838Z,6.23
2018-12-06T01:35:21.336Z,7.73
2018-12-06T01:37:48.829Z,7.23
2018-12-06T01:40:16.318Z,5.87
2018-12-06T01:42:43.819Z,6.83
2018-12-06T01:45:11.312Z,6.40
2018-12-06T01:47:38.805Z,5.80
2018-12-06T01:50:07.062Z,6.07
2018-12-06T01:52:34.557Z,6.10
2018-12-06T01:55:02.045Z,6.87
2018-12-06T01:57:29.538Z,6.90
2018-12-06T01:59:57.029Z,8.30
2018-12-06T02:02:24.522Z,6.93
2018-12-06T02:04:52.467Z,6.47
2018-12-06T02:07:19.962Z,5.67
2018-12-06T02:09:47.462Z,6.07
2018-12-06T02:12:14.958Z,6.77
2018-12-06T02:14:42.446Z,6.73
2018-12-06T02:17:09.937Z,5.97
2018-12-06T02:19:37.430Z,6.20
2018-12-06T02:22:04.921Z,6.13
2018-12-06T02:24:32.417Z,6.63
2018-12-06T02:26:59.915Z,6.23
2018-12-06T02:29:29.397Z,5.87
2018-12-06T02:31:56.895Z,7.20
2018-12-06T02:34:24.389Z,7.27
2018-12-06T02:36:51.885Z,6.70
2018-12-06T02:39:19.386Z,7.17
2018-12-06T02:41:47.115Z,5.60
2018-12-06T02:44:14.609Z,5.33
2018-12-06T02:46:42.103Z,5.97
2018-12-06T02:49:09.600Z,5.87
2018-12-06T02:51:37.093Z,7.30
2018-12-06T02:54:04.582Z,5.53
2018-12-06T02:56:32.081Z,5.97
2018-12-06T02:58:59.581Z,6.00
2018-12-06T03:01:27.077Z,6.40
2018-12-06T03:03:54.571Z,7.97
2018-12-06T03:06:22.070Z,7.53
2018-12-06T03:08:49.561Z,6.03
2018-12-06T03:11:17.054Z,6.60
2018-12-06T03:13:44.549Z,6.03
2018-12-06T03:16:12.045Z,5.13
2018-12-06T03:18:39.528Z,5.63
2018-12-06T03:21:07.022Z,7.27
2018-12-06T03:23:34.523Z,6.23
2018-12-06T03:26:02.013Z,6.67
2018-12-06T03:28:29.509Z,5.37
2018-12-06T03:30:57.003Z,6.10
2018-12-06T03:33:24.506Z,5.63
2018-12-06T03:35:51.998Z,6.50
2018-12-06T03:38:19.504Z,4.93
2018-12-06T03:40:47.001Z,6.70
2018-12-06T03:43:14.498Z,6.97
2018-12-06T03:45:41.991Z,5.60
2018-12-06T03:48:09.494Z,5.37
2018-12-06T03:50:36.996Z,6.53
2018-12-06T03:53:04.514Z,6.97
2018-12-06T03:55:32.012Z,7.13
2018-12-06T03:57:59.505Z,6.83
2018-12-06T04:00:26.997Z,5.50
2018-12-06T04:02:54.489Z,6.33
2018-12-06T04:05:21.982Z,6.37
2018-12-06T04:07:49.478Z,5.83
2018-12-06T04:10:16.965Z,5.60
2018-12-06T04:12:44.466Z,6.57
2018-12-06T04:15:11.960Z,6.50
2018-12-06T04:17:39.479Z,6.20
2018-12-06T04:20:06.973Z,7.33
2018-12-06T04:22:34.476Z,5.00
2018-12-06T04:25:01.974Z,7.17
2018-12-06T04:27:29.467Z,5.20
2018-12-06T04:29:56.963Z,6.27
2018-12-06T04:32:24.550Z,6.30
2018-12-06T04:34:52.070Z,7.00
2018-12-06T04:37:19.561Z,5.83
2018-12-06T04:39:47.050Z,5.77
2018-12-06T04:42:14.545Z,6.30
2018-12-06T04:44:42.041Z,6.47
2018-12-06T04:47:09.541Z,6.20
2018-12-06T04:49:37.046Z,5.97
2018-12-06T04:52:04.537Z,5.57
2018-12-06T04:54:32.032Z,5.53
2018-12-06T04:56:59.526Z,5.63
2018-12-06T04:59:27.031Z,5.73
2018-12-06T05:01:54.523Z,6.00
2018-12-06T05:04:22.013Z,6.97
2018-12-06T05:06:49.510Z,5.97
2018-12-06T05:09:17.011Z,5.53
2018-12-06T05:11:44.501Z,7.23
2018-12-06T05:14:11.990Z,5.37
2018-12-06T05:16:39.490Z,6.07
2018-12-06T05:19:06.982Z,5.53
2018-12-06T05:21:34.481Z,5.73
2018-12-06T05:24:01.975Z,7.80
2018-12-06T05:26:29.470Z,5.07
2018-12-06T05:28:56.962Z,7.83
2018-12-06T05:31:24.454Z,8.23
2018-12-06T05:33:51.942Z,6.23
2018-12-06T05:36:19.438Z,6.80
2018-12-06T05:38:46.934Z,7.40
2018-12-06T05:41:14.430Z,6.23
2018-12-06T05:43:41.924Z,5.47
2018-12-06T05:46:09.533Z,6.43
2018-12-06T05:48:37.044Z,6.57
2018-12-06T05:51:04.541Z,6.83
2018-12-06T05:53:32.026Z,5.57
2018-12-06T05:55:59.529Z,5.97
2018-12-06T05:58:27.024Z,6.00
2018-12-06T06:00:54.522Z,6.00
2018-12-06T06:03:22.020Z,5.53
2018-12-06T06:05:49.514Z,5.70
2018-12-06T06:08:17.005Z,5.17
2018-12-06T06:10:44.497Z,6.13
2018-12-06T06:13:11.985Z,5.10
2018-12-06T06:15:39.480Z,5.73
2018-12-06T06:18:06.973Z,4.60
2018-12-06T06:20:34.470Z,5.60
2018-12-06T06:23:01.969Z,5.30
2018-12-06T06:25:29.462Z,6.20
2018-12-06T06:27:56.950Z,4.57
2018-12-06T06:30:24.442Z,5.40
2018-12-06T06:32:51.934Z,5.47
2018-12-06T06:35:19.509Z,5.67
2018-12-06T06:37:47.037Z,4.93
2018-12-06T06:40:14.533Z,5.20
2018-12-06T06:42:42.042Z,8.67
2018-12-06T06:45:09.541Z,6.03
2018-12-06T06:47:37.036Z,5.17
2018-12-06T06:50:04.537Z,5.30
2018-12-06T06:52:32.030Z,6.50
2018-12-06T06:54:59.637Z,5.37
2018-12-06T06:57:27.137Z,6.17
2018-12-06T06:59:54.635Z,6.30
2018-12-06T07:02:22.136Z,5.47
2018-12-06T07:04:49.629Z,5.17
2018-12-06T07:07:17.122Z,4.70
2018-12-06T07:09:44.614Z,5.73
2018-12-06T07:12:12.110Z,5.97
2018-12-06T07:14:39.809Z,5.17
2018-12-06T07:17:07.579Z,7.50
2018-12-06T07:19:35.077Z,5.37
2018-12-06T07:22:02.567Z,6.00
2018-12-06T07:24:30.070Z,5.77
2018-12-06T07:26:57.558Z,5.77
2018-12-06T07:29:25.053Z,5.67
2018-12-06T07:31:52.597Z,6.80
2018-12-06T07:34:20.085Z,5.50
2018-12-06T07:36:47.584Z,6.70
2018-12-06T07:39:15.078Z,5.23
2018-12-06T07:41:42.570Z,5.90
2018-12-06T07:44:10.066Z,5.87
2018-12-06T07:46:37.557Z,7.27
2018-12-06T07:49:05.050Z,6.07
2018-12-06T07:51:32.550Z,5.93
2018-12-06T07:54:00.043Z,6.80
2018-12-06T07:56:27.543Z,5.93
2018-12-06T07:58:55.038Z,7.13
2018-12-06T08:01:22.544Z,6.47
2018-12-06T08:03:50.516Z,6.67
2018-12-06T08:06:18.005Z,6.63
2018-12-06T08:08:45.493Z,6.00
2018-12-06T08:11:12.987Z,12.03
2018-12-06T08:13:40.521Z,11.03
2018-12-06T08:16:08.095Z,6.63
2018-12-06T08:18:35.589Z,8.20
2018-12-06T08:21:03.081Z,7.17
2018-12-06T08:23:30.588Z,9.07
2018-12-06T08:25:58.092Z,6.33
2018-12-06T08:28:25.599Z,10.53
2018-12-06T08:30:53.102Z,5.73
2018-12-06T08:33:20.598Z,7.00
2018-12-06T08:35:48.094Z,8.30
2018-12-06T08:38:15.589Z,7.90
2018-12-06T08:40:43.086Z,6.33
2018-12-06T08:43:10.705Z,7.60
2018-12-06T08:45:38.197Z,6.03
2018-12-06T08:48:05.689Z,8.17
2018-12-06T08:50:33.186Z,8.23
2018-12-06T08:53:00.681Z,7.03
2018-12-06T08:55:28.173Z,6.07
2018-12-06T08:57:55.664Z,7.43
2018-12-06T09:00:23.162Z,5.17
2018-12-06T09:02:50.656Z,6.80
2018-12-06T09:05:18.156Z,7.10
2018-12-06T09:07:45.645Z,7.23
2018-12-06T09:10:13.150Z,12.77
2018-12-06T09:12:40.656Z,7.13
2018-12-06T09:15:08.158Z,5.83
2018-12-06T09:17:35.655Z,6.40
2018-12-06T09:20:04.510Z,7.20
2018-12-06T09:22:32.010Z,6.00
2018-12-06T09:24:59.507Z,8.23
2018-12-06T09:27:27.011Z,8.70
2018-12-06T09:29:54.516Z,7.43
2018-12-06T09:32:22.018Z,8.63
2018-12-06T09:34:49.518Z,8.80
2018-12-06T09:37:17.022Z,7.53
2018-12-06T09:39:48.630Z,7.27
2018-12-06T09:42:16.129Z,9.03
2018-12-06T09:44:43.634Z,8.83
2018-12-06T09:47:11.130Z,9.83
2018-12-06T09:49:38.630Z,9.47
2018-12-06T09:52:06.140Z,7.77
2018-12-06T09:54:33.642Z,9.27
2018-12-06T09:57:01.149Z,10.37
2018-12-06T09:59:28.649Z,8.27
2018-12-06T10:01:56.146Z,9.80
2018-12-06T10:04:23.641Z,9.30
2018-12-06T10:06:51.142Z,8.47
2018-12-06T10:09:18.650Z,11.73
2018-12-06T10:11:46.153Z,10.17
2018-12-06T10:14:13.649Z,5.73
2018-12-06T10:16:41.148Z,10.70
2018-12-06T10:19:08.647Z,10.13
2018-12-06T10:21:36.146Z,10.07
2018-12-06T10:24:03.645Z,10.83
2018-12-06T10:26:31.412Z,8.03
2018-12-06T10:28:58.935Z,10.40
2018-12-06T10:31:26.809Z,11.03
2018-12-06T10:33:54.323Z,8.50
2018-12-06T10:36:21.825Z,12.53
2018-12-06T10:38:49.330Z,16.67
2018-12-06T10:41:16.830Z,14.87
2018-12-06T10:43:44.334Z,13.53
2018-12-06T10:46:12.161Z,17.10
2018-12-06T10:48:39.661Z,18.17
2018-12-06T10:51:19.010Z,14.30
2018-12-06T10:53:46.510Z,23.30
2018-12-06T10:56:14.013Z,23.60
2018-12-06T10:58:41.513Z,14.53
2018-12-06T11:01:09.014Z,22.37
2018-12-06T11:03:42.112Z,21.53
2018-12-06T11:06:09.615Z,20.10
2018-12-06T11:08:37.127Z,22.60
2018-12-06T11:11:04.635Z,18.57
2018-12-06T11:13:32.145Z,23.57
2018-12-06T11:15:59.649Z,19.47
2018-12-06T11:18:27.157Z,19.00
2018-12-06T11:20:54.658Z,17.80
2018-12-06T11:23:22.161Z,16.63
2018-12-06T11:25:49.661Z,18.63
2018-12-06T11:28:17.162Z,19.60
2018-12-06T11:30:44.662Z,20.00
2018-12-06T11:33:12.167Z,20.40
2018-12-06T11:35:40.858Z,21.07
2018-12-06T11:38:08.681Z,15.33
2018-12-06T11:40:36.180Z,14.57
2018-12-06T11:43:03.687Z,14.40
2018-12-06T11:45:31.202Z,14.93
2018-12-06T11:47:58.706Z,13.90
2018-12-06T11:50:26.211Z,15.57
2018-12-06T11:52:53.709Z,17.27
2018-12-06T11:55:21.270Z,13.33
2018-12-06T11:57:49.125Z,13.03
2018-12-06T12:00:16.626Z,18.53
2018-12-06T12:02:44.126Z,20.73
2018-12-06T12:05:11.629Z,15.83
2018-12-06T12:07:39.140Z,14.33
2018-12-06T12:10:06.727Z,16.60
2018-12-06T12:12:34.221Z,13.67
2018-12-06T12:15:01.725Z,17.53
2018-12-06T12:17:29.337Z,11.87
2018-12-06T12:19:56.841Z,14.13
2018-12-06T12:22:24.347Z,17.77
2018-12-06T12:24:51.847Z,17.40
2018-12-06T12:27:19.342Z,17.33
2018-12-06T12:29:46.838Z,17.83
2018-12-06T12:32:14.342Z,15.80
2018-12-06T12:34:41.842Z,20.07
2018-12-06T12:37:09.346Z,19.07
2018-12-06T12:39:36.847Z,15.73
2018-12-06T12:42:04.353Z,21.23
2018-12-06T12:44:31.861Z,17.03
2018-12-06T12:46:59.366Z,19.83
2018-12-06T12:49:26.869Z,19.97
2018-12-06T12:51:54.381Z,16.87
2018-12-06T12:54:21.985Z,21.57
2018-12-06T12:56:49.487Z,24.60
2018-12-06T12:59:17.092Z,17.60
2018-12-06T13:01:44.910Z,22.47
2018-12-06T13:04:12.421Z,22.13
2018-12-06T13:06:39.922Z,16.00
2018-12-06T13:09:07.434Z,16.93
2018-12-06T13:11:34.936Z,17.63
2018-12-06T13:14:02.479Z,20.50
2018-12-06T13:16:30.059Z,18.77
2018-12-06T13:18:57.566Z,16.07
2018-12-06T13:21:25.065Z,14.57
2018-12-06T13:23:52.569Z,14.27
2018-12-06T13:26:20.070Z,14.93
2018-12-06T13:28:47.569Z,18.47
2018-12-06T13:31:15.070Z,16.00
2018-12-06T13:33:42.577Z,14.47
2018-12-06T13:36:10.077Z,19.77
2018-12-06T13:38:37.577Z,12.97
2018-12-06T13:41:05.085Z,15.57
2018-12-06T13:43:32.590Z,15.47
2018-12-06T13:46:00.163Z,14.10
2018-12-06T13:48:27.809Z,12.57
2018-12-06T13:50:55.310Z,20.93
2018-12-06T13:53:22.818Z,13.40
2018-12-06T13:55:50.322Z,12.30
2018-12-06T13:58:17.943Z,12.03
2018-12-06T14:00:45.656Z,14.87
2018-12-06T14:03:13.468Z,12.47
2018-12-06T14:05:40.974Z,18.40
2018-12-06T14:08:08.473Z,16.53
2018-12-06T14:10:35.979Z,12.10
2018-12-06T14:13:03.490Z,16.77
2018-12-06T14:15:30.990Z,16.93
2018-12-06T14:17:58.485Z,13.00
2018-12-06T14:20:25.982Z,14.90
2018-12-06T14:22:53.554Z,12.50
2018-12-06T14:25:21.093Z,15.57
2018-12-06T14:27:48.598Z,27.10
2018-12-06T14:30:16.098Z,68.83
2018-12-06T14:32:44.740Z,52.73
2018-12-06T14:35:12.614Z,30.03
2018-12-06T14:37:40.116Z,29.07
2018-12-06T14:40:07.619Z,23.23
2018-12-06T14:42:35.127Z,21.47
2018-12-06T14:45:02.630Z,22.00
2018-12-06T14:47:30.126Z,21.83
2018-12-06T14:49:57.626Z,24.10
2018-12-06T14:52:25.130Z,23.53
2018-12-06T14:54:52.634Z,20.37
2018-12-06T14:57:20.147Z,19.33
2018-12-06T14:59:47.645Z,21.90
2018-12-06T15:02:15.259Z,22.33
2018-12-06T15:04:42.754Z,25.43
2018-12-06T15:07:10.258Z,20.87
2018-12-06T15:09:37.764Z,21.20
2018-12-06T15:12:05.274Z,18.63
2018-12-06T15:14:32.783Z,16.70
2018-12-06T15:17:00.282Z,22.07
2018-12-06T15:19:27.786Z,27.93
2018-12-06T15:21:55.281Z,34.57
2018-12-06T15:24:22.781Z,34.40
2018-12-06T15:26:50.284Z,35.80
2018-12-06T15:29:18.098Z,24.47
2018-12-06T15:31:45.597Z,35.37
2018-12-06T15:34:13.102Z,33.60
2018-12-06T15:36:40.597Z,29.10
2018-12-06T15:39:08.097Z,28.40
2018-12-06T15:41:35.596Z,25.33
2018-12-06T15:44:03.098Z,33.60
2018-12-06T15:46:30.602Z,155.30
2018-12-06T15:48:58.106Z,105.43
2018-12-06T15:51:25.605Z,46.73
2018-12-06T15:53:53.106Z,46.37
2018-12-06T15:56:20.605Z,39.97
2018-12-06T15:58:48.111Z,45.20
2018-12-06T16:01:15.639Z,35.60
2018-12-06T16:03:43.234Z,220.10
2018-12-06T16:06:10.747Z,399.63
2018-12-06T16:08:38.258Z,210.20
2018-12-06T16:11:05.878Z,115.67
2018-12-06T16:13:33.390Z,53.73
2018-12-06T16:16:00.885Z,46.70
2018-12-06T16:18:28.391Z,61.63
2018-12-06T16:20:55.899Z,73.80
2018-12-06T16:23:23.412Z,59.23
2018-12-06T16:25:50.915Z,64.87
2018-12-06T16:28:18.530Z,60.57
2018-12-06T16:30:46.030Z,47.83
2018-12-06T16:33:13.531Z,50.90
2018-12-06T16:35:41.033Z,55.23
2018-12-06T16:38:08.529Z,54.40
2018-12-06T16:40:36.034Z,55.83
2018-12-06T16:43:03.548Z,53.20
2018-12-06T16:45:31.046Z,50.77
2018-12-06T16:47:58.771Z,44.33
2018-12-06T16:50:26.266Z,50.03
2018-12-06T16:52:53.773Z,42.37
2018-12-06T16:55:21.276Z,38.23
2018-12-06T16:57:48.779Z,39.37
2018-12-06T17:00:16.278Z,41.07
2018-12-06T17:02:43.781Z,40.77
2018-12-06T17:05:11.281Z,39.33
2018-12-06T17:07:38.786Z,35.57
2018-12-06T17:10:06.281Z,37.57
2018-12-06T17:12:33.778Z,38.73
2018-12-06T17:15:01.277Z,40.07
2018-12-06T17:17:28.781Z,32.43
2018-12-06T17:19:56.289Z,35.77
2018-12-06T17:22:23.785Z,33.93
2018-12-06T17:24:51.282Z,31.53
2018-12-06T17:27:18.778Z,29.83
2018-12-06T17:29:46.461Z,29.77
2018-12-06T17:32:13.960Z,33.30
2018-12-06T17:34:41.458Z,31.77
2018-12-06T17:37:08.961Z,29.80
2018-12-06T17:39:36.458Z,31.03
2018-12-06T17:42:03.966Z,28.53
2018-12-06T17:44:31.465Z,30.60
2018-12-06T17:47:00.443Z,26.70
2018-12-06T17:49:27.942Z,27.70
2018-12-06T17:51:55.931Z,28.87
2018-12-06T17:54:23.430Z,23.83
2018-12-06T17:56:50.930Z,28.53
2018-12-06T17:59:18.425Z,27.47
2018-12-06T18:01:45.921Z,25.87
2018-12-06T18:04:13.422Z,25.10
2018-12-06T18:06:40.922Z,23.20
2018-12-06T18:09:08.427Z,23.57
2018-12-06T18:11:35.924Z,23.57
2018-12-06T18:14:03.421Z,23.00
2018-12-06T18:16:30.919Z,22.07
2018-12-06T18:18:58.417Z,23.23
2018-12-06T18:21:25.922Z,22.27
2018-12-06T18:23:53.422Z,21.80
2018-12-06T18:26:20.930Z,21.27
2018-12-06T18:28:48.430Z,20.43
2018-12-06T18:31:15.925Z,23.10
2018-12-06T18:33:43.421Z,22.33
2018-12-06T18:36:10.918Z,22.77
2018-12-06T18:38:38.539Z,20.87
2018-12-06T18:41:06.038Z,18.23
2018-12-06T18:43:33.533Z,19.40
2018-12-06T18:46:01.033Z,19.80
2018-12-06T18:48:28.530Z,21.67
2018-12-06T18:50:56.107Z,21.00
2018-12-06T18:53:23.606Z,18.83
2018-12-06T18:55:51.102Z,20.27
2018-12-06T18:58:18.606Z,16.57
2018-12-06T19:00:46.107Z,19.33
2018-12-06T19:03:13.610Z,17.57
2018-12-06T19:05:41.115Z,20.23
2018-12-06T19:08:08.992Z,17.20
2018-12-06T19:10:36.958Z,18.47
2018-12-06T19:13:04.466Z,18.37
2018-12-06T19:15:31.966Z,17.00
2018-12-06T19:17:59.466Z,17.27
2018-12-06T19:20:27.085Z,15.70
2018-12-06T19:22:54.582Z,17.03
2018-12-06T19:25:22.089Z,16.40
2018-12-06T19:27:49.587Z,16.83
2018-12-06T19:30:17.080Z,17.73
2018-12-06T19:32:44.578Z,16.47
2018-12-06T19:35:12.108Z,15.03
2018-12-06T19:37:40.985Z,14.67
2018-12-06T19:40:08.494Z,17.43
2018-12-06T19:42:38.917Z,18.03
2018-12-06T19:45:06.086Z,16.97
2018-12-06T19:47:33.591Z,13.93
2018-12-06T19:50:01.103Z,16.30
2018-12-06T19:52:28.607Z,14.33
2018-12-06T19:54:56.110Z,15.40
2018-12-06T19:57:23.608Z,13.50
2018-12-06T19:59:51.103Z,13.53
2018-12-06T20:02:18.599Z,14.57
2018-12-06T20:04:46.522Z,15.10
2018-12-06T20:07:14.022Z,14.73
2018-12-06T20:09:41.526Z,16.97
2018-12-06T20:12:09.025Z,13.83
2018-12-06T20:14:36.518Z,14.50
2018-12-06T20:17:04.013Z,15.00
2018-12-06T20:19:31.517Z,15.90
2018-12-06T20:21:59.015Z,15.33
2018-12-06T20:24:26.510Z,13.83
2018-12-06T20:26:54.005Z,14.10
2018-12-06T20:29:21.502Z,14.23
2018-12-06T20:31:49.009Z,14.03
2018-12-06T20:34:16.509Z,15.23
2018-12-06T20:36:44.010Z,14.00
2018-12-06T20:39:11.510Z,14.93
2018-12-06T20:41:39.005Z,12.90
2018-12-06T20:44:06.505Z,15.60
2018-12-06T20:46:34.010Z,17.10
2018-12-06T20:49:01.514Z,13.83
2018-12-06T20:51:29.009Z,14.73
2018-12-06T20:53:56.506Z,13.27
2018-12-06T20:56:24.309Z,13.73
2018-12-06T20:58:51.805Z,13.37
2018-12-06T21:01:19.302Z,13.47
2018-12-06T21:03:46.802Z,12.50
2018-12-06T21:06:14.311Z,14.23
2018-12-06T21:08:41.813Z,14.47
2018-12-06T21:11:09.310Z,12.93
2018-12-06T21:13:36.806Z,13.77
2018-12-06T21:16:04.304Z,14.47
2018-12-06T21:18:31.802Z,14.73
2018-12-06T21:20:59.297Z,10.90
2018-12-06T21:23:26.796Z,11.93
2018-12-06T21:25:54.297Z,12.43
2018-12-06T21:28:21.797Z,12.53
2018-12-06T21:30:49.296Z,12.30
2018-12-06T21:33:16.805Z,10.83
2018-12-06T21:35:44.302Z,12.03
2018-12-06T21:38:11.805Z,12.60
2018-12-06T21:40:39.311Z,11.73
2018-12-06T21:43:06.813Z,12.00
2018-12-06T21:45:34.319Z,10.97
2018-12-06T21:48:01.814Z,12.50
2018-12-06T21:50:29.310Z,12.17
2018-12-06T21:52:56.806Z,10.90
2018-12-06T21:55:24.306Z,11.33
2018-12-06T21:57:51.802Z,11.80
2018-12-06T22:00:19.298Z,11.47
2018-12-06T22:02:46.802Z,10.77
2018-12-06T22:05:14.299Z,9.57
2018-12-06T22:07:41.798Z,10.80
2018-12-06T22:10:09.293Z,10.33
2018-12-06T22:12:36.789Z,10.23
2018-12-06T22:15:05.086Z,9.77
2018-12-06T22:17:32.582Z,8.90
2018-12-06T22:20:00.073Z,9.20
2018-12-06T22:22:27.562Z,9.67
2018-12-06T22:24:55.062Z,10.47
2018-12-06T22:27:22.568Z,9.77
2018-12-06T22:29:50.061Z,9.10
2018-12-06T22:32:17.550Z,9.70
2018-12-06T22:34:45.046Z,9.50
2018-12-06T22:37:12.541Z,8.37
2018-12-06T22:39:40.034Z,8.70
2018-12-06T22:42:07.525Z,8.17
2018-12-06T22:44:35.018Z,8.20
2018-12-06T22:47:02.533Z,10.23
2018-12-06T22:49:30.121Z,7.30
2018-12-06T22:51:57.614Z,7.83
2018-12-06T22:54:25.111Z,8.17
2018-12-06T22:56:52.605Z,8.43
2018-12-06T22:59:20.105Z,10.27
2018-12-06T23:01:49.895Z,8.33
2018-12-06T23:04:17.761Z,7.33
2018-12-06T23:06:45.338Z,6.37
2018-12-06T23:09:12.834Z,8.10
2018-12-06T23:11:40.329Z,6.63
2018-12-06T23:14:07.834Z,7.03
2018-12-06T23:16:35.331Z,7.47
2018-12-06T23:19:02.827Z,7.87
2018-12-06T23:21:30.325Z,6.50
2018-12-06T23:23:58.218Z,6.00
2018-12-06T23:26:25.710Z,7.40
2018-12-06T23:28:53.201Z,6.27
2018-12-06T23:31:20.694Z,7.17
2018-12-06T23:33:48.197Z,7.07
2018-12-06T23:36:15.695Z,6.73
2018-12-06T23:38:43.193Z,6.73
2018-12-06T23:41:10.686Z,6.57
2018-12-06T23:43:38.482Z,5.80
2018-12-06T23:46:05.981Z,7.33
2018-12-06T23:48:33.475Z,5.40
2018-12-06T23:54:08.999Z,5.77
2018-12-06T23:56:36.486Z,6.63
2018-12-06T23:59:03.977Z,5.67
